createdAt,value
2023-03-03T00:00:13.120Z,102635.75
2023-03-03T00:02:14.630Z,102633.09
2023-03-03T00:04:16.096Z,102639.19
2023-03-03T00:06:17.913Z,102636.56
2023-03-03T00:08:20.078Z,102633.09
2023-03-03T00:10:21.556Z,102634.81
2023-03-03T00:12:28.886Z,102633.91
2023-03-03T00:14:32.907Z,102630.38
2023-03-03T00:16:39.072Z,102631.22
2023-03-03T00:18:43.917Z,102632.00
2023-03-03T00:20:50.259Z,102627.63
2023-03-03T00:22:51.924Z,102631.91
2023-03-03T00:24:54.019Z,102630.19
2023-03-03T00:27:00.749Z,102622.38
2023-03-03T00:29:02.942Z,102618.94
2023-03-03T00:31:16.617Z,102624.13
2023-03-03T00:33:32.419Z,102632.78
2023-03-03T00:35:35.759Z,102634.44
2023-03-03T00:37:41.218Z,102638.75
2023-03-03T00:39:42.669Z,102628.34
2023-03-03T00:41:44.370Z,102636.09
2023-03-03T00:43:45.824Z,102637.81
2023-03-03T00:45:55.824Z,102647.41
2023-03-03T00:47:58.423Z,102637.88
2023-03-03T00:50:05.874Z,102635.22
2023-03-03T00:52:18.526Z,102630.94
2023-03-03T00:54:20.078Z,102633.63
2023-03-03T00:56:21.635Z,102638.81
2023-03-03T00:58:25.125Z,102633.63
2023-03-03T01:00:26.619Z,102638.00
2023-03-03T01:02:28.223Z,102639.75
2023-03-03T01:04:29.754Z,102638.03
2023-03-03T01:06:31.184Z,102634.56
2023-03-03T01:08:32.980Z,102638.88
2023-03-03T01:10:39.169Z,102630.94
2023-03-03T01:12:40.879Z,102633.50
2023-03-03T01:14:42.461Z,102639.59
2023-03-03T01:16:44.040Z,102640.47
2023-03-03T01:18:46.006Z,102635.22
2023-03-03T01:20:47.596Z,102636.94
2023-03-03T01:22:49.108Z,102623.91
2023-03-03T01:24:50.559Z,102629.19
2023-03-03T01:26:52.016Z,102621.38
2023-03-03T01:28:53.468Z,102619.72
2023-03-03T01:30:55.120Z,102622.38
2023-03-03T01:32:56.993Z,102624.97
2023-03-03T01:34:58.483Z,102628.47
2023-03-03T01:37:01.072Z,102623.31
2023-03-03T01:39:02.633Z,102620.69
2023-03-03T01:41:04.332Z,102617.31
2023-03-03T01:43:06.044Z,102611.19
2023-03-03T01:45:15.585Z,102615.63
2023-03-03T01:47:24.865Z,102609.53
2023-03-03T01:49:35.442Z,102601.72
2023-03-03T01:51:52.610Z,102609.59
2023-03-03T01:54:01.201Z,102608.78
2023-03-03T01:56:05.830Z,102592.22
2023-03-03T01:58:39.038Z,102594.75
2023-03-03T02:00:44.541Z,102588.53
2023-03-03T02:02:46.793Z,102599.00
2023-03-03T02:04:49.918Z,102585.09
2023-03-03T02:06:56.674Z,102586.63
2023-03-03T02:09:03.859Z,102584.66
2023-03-03T02:11:06.554Z,102593.22
2023-03-03T02:13:08.213Z,102587.25
2023-03-03T02:15:17.112Z,102586.53
2023-03-03T02:17:18.692Z,102590.13
2023-03-03T02:19:47.433Z,102598.03
2023-03-03T02:21:48.994Z,102597.22
2023-03-03T02:24:07.598Z,102599.75
2023-03-03T02:26:22.784Z,102598.94
2023-03-03T02:28:27.616Z,102596.31
2023-03-03T02:30:29.194Z,102598.94
2023-03-03T02:32:30.685Z,102594.44
2023-03-03T02:34:46.908Z,102598.81
2023-03-03T02:36:48.418Z,102594.44
2023-03-03T02:38:59.194Z,102592.69
2023-03-03T02:41:23.231Z,102592.69
2023-03-03T02:43:32.503Z,102599.53
2023-03-03T02:45:34.115Z,102599.31
2023-03-03T02:47:35.615Z,102594.91
2023-03-03T02:49:37.616Z,102592.94
2023-03-03T02:51:40.211Z,102594.50
2023-03-03T02:53:41.721Z,102598.72
2023-03-03T02:55:43.186Z,102586.47
2023-03-03T02:57:44.703Z,102590.97
2023-03-03T02:59:49.621Z,102590.25
2023-03-03T03:01:51.882Z,102590.47
2023-03-03T03:03:53.379Z,102589.69
2023-03-03T03:05:54.821Z,102589.78
2023-03-03T03:07:56.288Z,102588.03
2023-03-03T03:09:57.796Z,102593.22
2023-03-03T03:12:02.415Z,102588.81
2023-03-03T03:14:06.441Z,102594.13
2023-03-03T03:16:08.275Z,102592.34
2023-03-03T03:18:09.717Z,102586.91
2023-03-03T03:20:11.813Z,102589.34
2023-03-03T03:22:13.268Z,102585.59
2023-03-03T03:24:14.755Z,102585.53
2023-03-03T03:26:16.229Z,102591.78
2023-03-03T03:28:18.881Z,102587.53
2023-03-03T03:30:23.155Z,102585.69
2023-03-03T03:32:24.738Z,102587.53
2023-03-03T03:34:26.330Z,102592.72
2023-03-03T03:36:28.288Z,102597.94
2023-03-03T03:38:32.400Z,102601.53
2023-03-03T03:40:33.887Z,102596.44
2023-03-03T03:42:35.415Z,102600.03
2023-03-03T03:44:37.150Z,102598.31
2023-03-03T03:46:38.638Z,102602.66
2023-03-03T03:48:40.168Z,102602.66
2023-03-03T03:50:41.640Z,102592.84
2023-03-03T03:52:43.789Z,102598.75
2023-03-03T03:54:45.331Z,102600.19
2023-03-03T03:56:46.845Z,102606.19
2023-03-03T03:58:48.305Z,102602.69
2023-03-03T04:00:49.900Z,102601.09
2023-03-03T04:02:52.313Z,102604.69
2023-03-03T04:04:53.978Z,102604.84
2023-03-03T04:06:55.462Z,102607.56
2023-03-03T04:08:57.328Z,102607.69
2023-03-03T04:10:59.090Z,102603.38
2023-03-03T04:13:00.752Z,102607.69
2023-03-03T04:15:02.224Z,102618.94
2023-03-03T04:17:03.690Z,102609.28
2023-03-03T04:19:05.206Z,102604.09
2023-03-03T04:21:06.684Z,102606.69
2023-03-03T04:23:08.129Z,102601.38
2023-03-03T04:25:14.686Z,102604.81
2023-03-03T04:27:16.246Z,102604.97
2023-03-03T04:29:17.674Z,102600.72
2023-03-03T04:31:20.543Z,102604.13
2023-03-03T04:33:22.081Z,102595.38
2023-03-03T04:35:24.902Z,102597.94
2023-03-03T04:37:26.575Z,102597.94
2023-03-03T04:39:28.753Z,102603.03
2023-03-03T04:41:30.261Z,102593.38
2023-03-03T04:43:31.715Z,102601.25
2023-03-03T04:45:33.299Z,102596.88
2023-03-03T04:47:34.960Z,102597.66
2023-03-03T04:49:37.037Z,102595.81
2023-03-03T04:51:38.578Z,102587.06
2023-03-03T04:53:40.082Z,102594.72
2023-03-03T04:55:42.024Z,102591.38
2023-03-03T04:57:43.576Z,102584.53
2023-03-03T04:59:45.096Z,102588.84
2023-03-03T05:01:46.702Z,102583.63
2023-03-03T05:03:48.289Z,102582.94
2023-03-03T05:05:50.291Z,102584.03
2023-03-03T05:07:51.757Z,102579.81
2023-03-03T05:09:53.223Z,102573.78
2023-03-03T05:11:54.908Z,102581.59
2023-03-03T05:13:56.354Z,102573.75
2023-03-03T05:15:57.925Z,102575.50
2023-03-03T05:17:59.623Z,102568.66
2023-03-03T05:20:01.165Z,102569.63
2023-03-03T05:22:02.661Z,102567.09
2023-03-03T05:24:04.320Z,102570.63
2023-03-03T05:26:06.094Z,102566.31
2023-03-03T05:28:07.797Z,102562.94
2023-03-03T05:30:11.611Z,102563.94
2023-03-03T05:32:13.086Z,102570.91
2023-03-03T05:34:14.573Z,102570.03
2023-03-03T05:36:16.053Z,102575.28
2023-03-03T05:38:17.715Z,102573.63
2023-03-03T05:40:19.813Z,102578.00
2023-03-03T05:42:21.940Z,102573.72
2023-03-03T05:44:23.485Z,102574.66
2023-03-03T05:46:24.973Z,102578.09
2023-03-03T05:48:27.460Z,102572.91
2023-03-03T05:50:28.940Z,102588.41
2023-03-03T05:52:30.463Z,102574.66
2023-03-03T05:54:32.074Z,102585.28
2023-03-03T05:56:33.592Z,102576.69
2023-03-03T05:58:35.068Z,102588.94
2023-03-03T06:00:36.548Z,102600.34
2023-03-03T06:02:38.057Z,102588.25
2023-03-03T06:04:39.959Z,102596.19
2023-03-03T06:06:41.630Z,102603.22
2023-03-03T06:08:43.196Z,102603.22
2023-03-03T06:10:44.694Z,102609.31
2023-03-03T06:12:46.272Z,102597.16
2023-03-03T06:14:47.768Z,102606.69
2023-03-03T06:16:49.275Z,102614.47
2023-03-03T06:18:50.786Z,102611.91
2023-03-03T06:20:53.546Z,102611.09
2023-03-03T06:22:55.094Z,102609.38
2023-03-03T06:24:56.564Z,102612.78
2023-03-03T06:26:58.949Z,102630.25
2023-03-03T06:29:01.483Z,102614.63
2023-03-03T06:31:02.994Z,102620.78
2023-03-03T06:33:04.555Z,102626.88
2023-03-03T06:35:06.519Z,102623.47
2023-03-03T06:37:08.011Z,102629.69
2023-03-03T06:39:09.455Z,102621.81
2023-03-03T06:41:11.413Z,102625.31
2023-03-03T06:43:13.450Z,102621.81
2023-03-03T06:45:15.287Z,102637.34
2023-03-03T06:47:17.145Z,102637.28
2023-03-03T06:49:18.981Z,102634.69
2023-03-03T06:51:30.803Z,102633.06
2023-03-03T06:53:33.204Z,102632.28
2023-03-03T06:55:34.674Z,102634.06
2023-03-03T06:57:37.165Z,102632.34
2023-03-03T06:59:38.899Z,102637.66
2023-03-03T07:01:41.859Z,102636.78
2023-03-03T07:03:43.802Z,102637.66
2023-03-03T07:05:45.379Z,102644.66
2023-03-03T07:07:46.980Z,102646.41
2023-03-03T07:09:51.112Z,102642.97
2023-03-03T07:11:56.778Z,102648.25
2023-03-03T07:13:58.845Z,102650.00
2023-03-03T07:16:06.418Z,102655.13
2023-03-03T07:18:25.791Z,102649.97
2023-03-03T07:20:38.313Z,102651.72
2023-03-03T07:22:39.795Z,102663.94
2023-03-03T07:24:43.134Z,102663.25
2023-03-03T07:26:44.604Z,102661.56
2023-03-03T07:29:30.488Z,102661.78
2023-03-03T07:31:39.642Z,102661.94
2023-03-03T07:33:46.887Z,102662.09
2023-03-03T07:35:48.428Z,102665.63
2023-03-03T07:37:49.948Z,102664.75
2023-03-03T07:39:51.733Z,102662.25
2023-03-03T07:42:00.733Z,102662.34
2023-03-03T07:44:13.425Z,102667.63
2023-03-03T07:46:42.893Z,102674.66
2023-03-03T07:48:44.721Z,102663.56
2023-03-03T07:50:46.369Z,102662.81
2023-03-03T07:53:00.737Z,102656.94
2023-03-03T07:55:19.884Z,102662.41
2023-03-03T07:57:36.773Z,102663.50
2023-03-03T07:59:50.460Z,102661.09
2023-03-03T08:01:58.735Z,102670.84
2023-03-03T08:04:00.502Z,102665.75
2023-03-03T08:06:24.121Z,102665.06
2023-03-03T08:08:37.007Z,102663.53
2023-03-03T08:10:48.219Z,102656.63
2023-03-03T08:12:49.756Z,102661.06
2023-03-03T08:14:52.458Z,102651.59
2023-03-03T08:16:53.991Z,102653.38
2023-03-03T08:19:01.909Z,102654.44
2023-03-03T08:21:14.685Z,102652.78
2023-03-03T08:23:18.056Z,102651.03
2023-03-03T08:25:19.576Z,102659.91
2023-03-03T08:27:21.076Z,102660.94
2023-03-03T08:29:22.580Z,102661.91
2023-03-03T08:31:39.717Z,102662.78
2023-03-03T08:33:42.463Z,102658.41
2023-03-03T08:35:44.731Z,102653.41
2023-03-03T08:37:46.238Z,102654.47
2023-03-03T08:39:47.719Z,102650.34
2023-03-03T08:41:49.174Z,102655.81
2023-03-03T08:43:50.664Z,102655.88
2023-03-03T08:45:54.187Z,102651.59
2023-03-03T08:47:56.577Z,102651.59
2023-03-03T08:49:58.149Z,102659.38
2023-03-03T08:52:00.753Z,102657.63
2023-03-03T08:54:02.274Z,102661.03
2023-03-03T08:56:05.207Z,102660.09
2023-03-03T08:58:06.697Z,102654.13
2023-03-03T09:00:11.968Z,102658.53
2023-03-03T09:02:13.650Z,102657.78
2023-03-03T09:04:15.182Z,102657.88
2023-03-03T09:06:16.665Z,102663.16
2023-03-03T09:08:18.176Z,102665.97
2023-03-03T09:10:29.334Z,102663.66
2023-03-03T09:12:35.259Z,102661.41
2023-03-03T09:14:36.730Z,102664.47
2023-03-03T09:16:41.769Z,102663.09
2023-03-03T09:18:44.181Z,102672.91
2023-03-03T09:20:48.335Z,102662.75
2023-03-03T09:22:50.859Z,102667.53
2023-03-03T09:24:57.181Z,102667.81
2023-03-03T09:26:59.749Z,102674.91
2023-03-03T09:29:11.382Z,102661.94
2023-03-03T09:31:30.170Z,102660.31
2023-03-03T09:33:42.410Z,102670.88
2023-03-03T09:35:45.544Z,102668.41
2023-03-03T09:37:52.158Z,102663.13
2023-03-03T09:39:56.246Z,102663.31
2023-03-03T09:42:19.247Z,102665.34
2023-03-03T09:44:29.903Z,102672.53
2023-03-03T09:46:49.569Z,102667.28
2023-03-03T09:48:51.052Z,102669.09
2023-03-03T09:51:18.394Z,102662.22
2023-03-03T09:53:59.829Z,102659.69
2023-03-03T09:56:16.716Z,102665.19
2023-03-03T09:58:36.541Z,102670.59
2023-03-03T10:01:10.544Z,102669.91
2023-03-03T10:03:33.351Z,102665.75
2023-03-03T10:05:42.886Z,102665.78
2023-03-03T10:08:26.526Z,102669.06
2023-03-03T10:10:46.027Z,102664.69
2023-03-03T10:13:01.759Z,102660.59
2023-03-03T10:15:12.237Z,102665.19
2023-03-03T10:17:23.315Z,102656.69
2023-03-03T10:19:48.106Z,102659.28
2023-03-03T10:22:28.429Z,102668.25
2023-03-03T10:24:35.526Z,102664.09
2023-03-03T10:27:12.116Z,102663.41
2023-03-03T10:29:23.176Z,102668.84
2023-03-03T10:31:45.336Z,102664.38
2023-03-03T10:34:00.501Z,102671.19
2023-03-03T10:36:08.226Z,102672.03
2023-03-03T10:38:32.154Z,102672.97
2023-03-03T10:40:42.868Z,102671.09
2023-03-03T10:42:51.174Z,102675.41
2023-03-03T10:45:26.214Z,102678.00
2023-03-03T10:47:37.244Z,102675.34
2023-03-03T10:50:08.092Z,102673.50
2023-03-03T10:52:34.264Z,102676.81
2023-03-03T10:55:08.027Z,102674.28
2023-03-03T10:57:38.350Z,102671.78
2023-03-03T11:00:16.816Z,102673.72
2023-03-03T11:02:25.398Z,102671.91
2023-03-03T11:05:00.028Z,102672.13
2023-03-03T11:07:11.857Z,102669.94
2023-03-03T11:09:51.143Z,102662.44
2023-03-03T11:12:04.128Z,102661.75
2023-03-03T11:14:18.251Z,102667.63
2023-03-03T11:16:31.837Z,102660.38
2023-03-03T11:18:48.041Z,102663.84
2023-03-03T11:21:02.089Z,102657.94
2023-03-03T11:23:22.306Z,102653.69
2023-03-03T11:25:55.542Z,102653.84
2023-03-03T11:28:15.384Z,102656.44
2023-03-03T11:30:17.783Z,102648.75
2023-03-03T11:32:40.239Z,102652.50
2023-03-03T11:35:19.392Z,102650.16
2023-03-03T11:37:54.948Z,102646.66
2023-03-03T11:40:01.517Z,102644.78
2023-03-03T11:42:11.870Z,102643.66
2023-03-03T11:44:27.380Z,102640.50
2023-03-03T11:46:45.452Z,102641.22
2023-03-03T11:49:08.298Z,102644.28
2023-03-03T11:51:28.892Z,102636.25
2023-03-03T11:53:39.860Z,102639.78
2023-03-03T11:55:49.354Z,102634.19
2023-03-03T11:58:00.988Z,102627.22
2023-03-03T12:00:09.466Z,102630.25
2023-03-03T12:02:29.182Z,102627.59
2023-03-03T12:04:34.566Z,102628.19
2023-03-03T12:07:22.053Z,102618.19
2023-03-03T12:09:42.103Z,102622.41
2023-03-03T12:12:09.944Z,102611.50
2023-03-03T12:14:22.761Z,102612.09
2023-03-03T12:17:13.547Z,102615.34
2023-03-03T12:19:30.082Z,102614.41
2023-03-03T12:21:46.383Z,102600.31
2023-03-03T12:24:09.464Z,102605.50
2023-03-03T12:26:25.830Z,102601.03
2023-03-03T12:28:40.932Z,102605.47
2023-03-03T12:31:10.616Z,102595.94
2023-03-03T12:33:30.952Z,102603.72
2023-03-03T12:36:03.000Z,102592.16
2023-03-03T12:38:27.453Z,102593.66
2023-03-03T12:40:33.914Z,102595.47
2023-03-03T12:42:47.428Z,102592.78
2023-03-03T12:44:51.847Z,102591.88
2023-03-03T12:47:13.468Z,102591.09
2023-03-03T12:49:15.033Z,102585.03
2023-03-03T12:51:33.682Z,102587.81
2023-03-03T12:53:40.428Z,102588.59
2023-03-03T12:56:01.224Z,102579.69
2023-03-03T12:58:23.943Z,102575.25
2023-03-03T13:00:28.474Z,102580.47
2023-03-03T13:02:40.950Z,102576.94
2023-03-03T13:05:20.880Z,102565.59
2023-03-03T13:07:49.859Z,102574.38
2023-03-03T13:09:57.435Z,102563.00
2023-03-03T13:12:01.862Z,102556.91
2023-03-03T13:14:36.643Z,102560.53
2023-03-03T13:16:46.593Z,102563.09
2023-03-03T13:18:50.983Z,102559.59
2023-03-03T13:21:05.383Z,102563.00
2023-03-03T13:23:25.629Z,102570.81
2023-03-03T13:25:40.111Z,102557.59
2023-03-03T13:27:45.579Z,102562.88
2023-03-03T13:30:22.842Z,102555.91
2023-03-03T13:32:37.428Z,102552.50
2023-03-03T13:35:17.813Z,102549.91
2023-03-03T13:37:24.255Z,102556.03
2023-03-03T13:39:30.782Z,102557.72
2023-03-03T13:41:46.971Z,102550.75
2023-03-03T13:43:52.297Z,102550.69
2023-03-03T13:45:59.774Z,102544.56
2023-03-03T13:48:38.983Z,102545.41
2023-03-03T13:50:50.913Z,102546.22
2023-03-03T13:53:24.236Z,102544.34
2023-03-03T13:55:40.819Z,102545.22
2023-03-03T13:58:01.178Z,102535.50
2023-03-03T14:00:24.126Z,102535.50
2023-03-03T14:02:54.017Z,102536.28
2023-03-03T14:05:04.585Z,102523.97
2023-03-03T14:07:17.957Z,102528.31
2023-03-03T14:09:46.510Z,102525.56
2023-03-03T14:11:59.977Z,102521.19
2023-03-03T14:14:18.277Z,102514.22
2023-03-03T14:16:34.236Z,102509.00
2023-03-03T14:18:39.807Z,102510.78
2023-03-03T14:20:49.168Z,102508.22
2023-03-03T14:23:01.049Z,102499.53
2023-03-03T14:25:12.344Z,102502.16
2023-03-03T14:27:24.818Z,102503.91
2023-03-03T14:29:26.237Z,102506.53
2023-03-03T14:31:38.295Z,102491.66
2023-03-03T14:33:43.914Z,102503.88
2023-03-03T14:36:09.615Z,102496.91
2023-03-03T14:38:21.638Z,102499.50
2023-03-03T14:40:34.254Z,102500.41
2023-03-03T14:42:44.974Z,102491.59
2023-03-03T14:44:46.337Z,102494.16
2023-03-03T14:47:03.034Z,102494.06
2023-03-03T14:49:13.337Z,102489.78
2023-03-03T14:51:28.923Z,102487.13
2023-03-03T14:53:35.656Z,102488.84
2023-03-03T14:55:40.229Z,102478.28
2023-03-03T14:57:46.975Z,102483.47
2023-03-03T15:02:15.681Z,102477.31
2023-03-03T15:04:17.098Z,102476.41
2023-03-03T15:06:44.885Z,102471.16
2023-03-03T15:08:47.981Z,102472.97
2023-03-03T15:10:49.462Z,102473.84
2023-03-03T15:12:52.296Z,102462.50
2023-03-03T15:15:11.293Z,102471.31
2023-03-03T15:17:23.818Z,102465.16
2023-03-03T15:19:41.990Z,102464.31
2023-03-03T15:21:58.786Z,102463.47
2023-03-03T15:24:05.968Z,102463.50
2023-03-03T15:26:28.796Z,102461.75
2023-03-03T15:28:39.594Z,102460.00
2023-03-03T15:30:51.151Z,102457.44
2023-03-03T15:33:03.812Z,102453.91
2023-03-03T15:35:17.521Z,102453.88
2023-03-03T15:37:43.653Z,102448.66
2023-03-03T15:40:09.301Z,102446.84
2023-03-03T15:42:26.989Z,102444.25
2023-03-03T15:44:49.974Z,102442.44
2023-03-03T15:46:57.346Z,102438.03
2023-03-03T15:49:17.205Z,102445.03
2023-03-03T15:52:02.804Z,102444.16
2023-03-03T15:54:31.018Z,102439.78
2023-03-03T15:56:58.455Z,102438.91
2023-03-03T15:59:21.580Z,102437.97
2023-03-03T16:01:33.901Z,102437.09
2023-03-03T16:03:45.668Z,102436.25
2023-03-03T16:05:57.668Z,102430.97
2023-03-03T16:08:13.918Z,102435.34
2023-03-03T16:10:28.810Z,102428.44
2023-03-03T16:12:55.126Z,102424.88
2023-03-03T16:15:09.097Z,102429.16
2023-03-03T16:17:27.700Z,102424.78
2023-03-03T16:19:47.476Z,102422.03
2023-03-03T16:22:15.591Z,102424.63
2023-03-03T16:24:26.080Z,102426.31
2023-03-03T16:26:31.537Z,102428.06
2023-03-03T16:28:50.592Z,102428.03
2023-03-03T16:30:54.753Z,102427.19
2023-03-03T16:33:15.508Z,102432.44
2023-03-03T16:35:39.672Z,102427.97
2023-03-03T16:37:59.675Z,102430.59
2023-03-03T16:40:29.008Z,102438.41
2023-03-03T16:42:33.230Z,102431.38
2023-03-03T16:44:47.386Z,102432.25
2023-03-03T16:46:50.026Z,102430.47
2023-03-03T16:48:56.629Z,102431.28
2023-03-03T16:51:13.024Z,102431.28
2023-03-03T16:53:33.144Z,102436.50
2023-03-03T16:55:43.830Z,102433.84
2023-03-03T16:57:54.015Z,102436.44
2023-03-03T17:00:19.454Z,102442.59
2023-03-03T17:03:12.081Z,102438.19
2023-03-03T17:05:33.401Z,102431.16
2023-03-03T17:07:56.965Z,102436.41
2023-03-03T17:10:04.591Z,102431.13
2023-03-03T17:12:27.837Z,102432.91
2023-03-03T17:14:55.569Z,102437.25
2023-03-03T17:17:04.015Z,102432.81
2023-03-03T17:19:25.716Z,102439.78
2023-03-03T17:21:45.796Z,102438.88
2023-03-03T17:23:53.213Z,102452.00
2023-03-03T17:26:04.394Z,102442.34
2023-03-03T17:28:30.640Z,102452.84
2023-03-03T17:31:10.045Z,102451.06
2023-03-03T17:33:36.739Z,102451.91
2023-03-03T17:35:47.132Z,102458.00
2023-03-03T17:37:58.098Z,102465.00
2023-03-03T17:40:20.050Z,102465.84
2023-03-03T17:42:31.309Z,102466.59
2023-03-03T17:45:03.372Z,102459.59
2023-03-03T17:47:10.132Z,102469.19
2023-03-03T17:49:45.788Z,102456.91
2023-03-03T17:52:07.433Z,102469.94
2023-03-03T17:54:26.406Z,102463.84
2023-03-03T17:56:52.676Z,102465.56
2023-03-03T17:59:22.136Z,102470.72
2023-03-03T18:01:47.609Z,102471.63
2023-03-03T18:04:36.104Z,102471.56
2023-03-03T18:07:15.162Z,102475.88
2023-03-03T18:09:37.305Z,102472.34
2023-03-03T18:11:59.924Z,102471.41
2023-03-03T18:14:49.873Z,102468.78
2023-03-03T18:16:51.284Z,102471.31
2023-03-03T18:19:31.509Z,102462.59
2023-03-03T18:22:02.999Z,102463.41
2023-03-03T18:24:28.010Z,102459.00
2023-03-03T18:26:40.638Z,102459.88
2023-03-03T18:28:49.398Z,102460.78
2023-03-03T18:30:58.063Z,102460.72
2023-03-03T18:33:03.330Z,102457.19
2023-03-03T18:35:24.970Z,102458.09
2023-03-03T18:37:29.746Z,102460.72
2023-03-03T18:39:46.275Z,102468.59
2023-03-03T18:42:16.967Z,102461.59
2023-03-03T18:44:29.115Z,102467.72
2023-03-03T18:46:36.708Z,102456.31
2023-03-03T18:48:57.546Z,102461.53
2023-03-03T18:50:59.014Z,102459.75
2023-03-03T18:53:18.731Z,102465.03
2023-03-03T18:55:26.048Z,102463.25
2023-03-03T18:57:27.809Z,102451.88
2023-03-03T18:59:35.247Z,102453.63
2023-03-03T19:01:41.847Z,102459.75
2023-03-03T19:03:47.058Z,102459.78
2023-03-03T19:05:54.016Z,102462.44
2023-03-03T19:08:02.958Z,102453.66
2023-03-03T19:10:28.047Z,102458.00
2023-03-03T19:12:56.850Z,102464.88
2023-03-03T19:14:58.640Z,102448.25
2023-03-03T19:17:22.777Z,102455.22
2023-03-03T19:19:54.000Z,102455.22
2023-03-03T19:22:26.174Z,102454.34
2023-03-03T19:24:31.350Z,102452.59
2023-03-03T19:27:05.852Z,102454.38
2023-03-03T19:29:13.348Z,102443.91
2023-03-03T19:31:38.380Z,102455.22
2023-03-03T19:33:42.815Z,102456.06
2023-03-03T19:35:51.381Z,102456.09
2023-03-03T19:38:11.674Z,102458.75
2023-03-03T19:40:19.298Z,102459.63
2023-03-03T19:42:50.240Z,102463.06
2023-03-03T19:45:19.866Z,102462.09
2023-03-03T19:47:33.235Z,102463.81
2023-03-03T19:49:44.067Z,102466.41
2023-03-03T19:52:31.448Z,102468.97
2023-03-03T19:55:00.634Z,102463.72
2023-03-03T19:57:04.697Z,102464.56
2023-03-03T19:59:44.949Z,102464.53
2023-03-03T20:02:13.724Z,102472.38
2023-03-03T20:04:40.133Z,102459.34
2023-03-03T20:07:09.586Z,102461.97
2023-03-03T20:09:50.225Z,102462.81
2023-03-03T20:12:47.579Z,102454.97
2023-03-03T20:14:55.234Z,102461.88
2023-03-03T20:17:11.700Z,102468.06
2023-03-03T20:19:45.631Z,102465.50
2023-03-03T20:22:08.939Z,102461.94
2023-03-03T20:24:26.134Z,102468.06
2023-03-03T20:26:52.356Z,102464.50
2023-03-03T20:29:02.927Z,102467.97
2023-03-03T20:31:20.182Z,102462.75
2023-03-03T20:33:44.177Z,102469.72
2023-03-03T20:36:06.910Z,102463.56
2023-03-03T20:38:20.968Z,102473.13
2023-03-03T20:40:47.479Z,102470.47
2023-03-03T20:43:06.416Z,102469.59
2023-03-03T20:45:29.770Z,102469.59
2023-03-03T20:47:46.454Z,102472.19
2023-03-03T20:50:25.591Z,102470.47
2023-03-03T20:53:02.360Z,102472.19
2023-03-03T20:55:32.012Z,102473.06
2023-03-03T20:57:48.731Z,102483.53
2023-03-03T21:00:01.702Z,102469.59
2023-03-03T21:02:05.825Z,102467.84
2023-03-03T21:04:27.798Z,102472.25
2023-03-03T21:06:38.900Z,102477.47
2023-03-03T21:08:40.344Z,102471.34
2023-03-03T21:10:42.673Z,102475.72
2023-03-03T21:12:44.307Z,102474.84
2023-03-03T21:14:59.524Z,102462.63
2023-03-03T21:17:11.276Z,102472.25
2023-03-03T21:19:23.192Z,102467.88
2023-03-03T21:21:26.457Z,102461.88
2023-03-03T21:23:27.963Z,102474.09
2023-03-03T21:25:41.742Z,102460.97
2023-03-03T21:27:43.196Z,102464.44
2023-03-03T21:29:44.657Z,102461.78
2023-03-03T21:31:53.387Z,102467.00
2023-03-03T21:33:56.200Z,102462.59
2023-03-03T21:35:58.605Z,102456.47
2023-03-03T21:38:00.095Z,102460.81
2023-03-03T21:40:26.257Z,102459.09
2023-03-03T21:42:42.385Z,102453.84
2023-03-03T21:44:52.217Z,102457.34
2023-03-03T21:46:53.699Z,102458.19
2023-03-03T21:48:55.132Z,102451.25
2023-03-03T21:50:56.780Z,102454.72
2023-03-03T21:52:58.237Z,102455.59
2023-03-03T21:54:59.742Z,102453.84
2023-03-03T21:57:01.224Z,102454.72
2023-03-03T21:59:02.667Z,102451.25
2023-03-03T22:01:05.964Z,102460.03
2023-03-03T22:03:07.444Z,102450.47
2023-03-03T22:05:08.994Z,102449.63
2023-03-03T22:07:10.843Z,102441.72
2023-03-03T22:09:12.420Z,102448.75
2023-03-03T22:11:15.554Z,102448.69
2023-03-03T22:13:20.096Z,102451.28
2023-03-03T22:15:21.777Z,102442.63
2023-03-03T22:17:25.471Z,102443.50
2023-03-03T22:19:27.044Z,102444.31
2023-03-03T22:21:28.878Z,102440.81
2023-03-03T22:23:30.336Z,102439.06
2023-03-03T22:25:32.087Z,102439.06
2023-03-03T22:27:33.691Z,102440.03
2023-03-03T22:29:35.161Z,102446.94
2023-03-03T22:31:37.340Z,102441.78
2023-03-03T22:33:39.109Z,102445.28
2023-03-03T22:35:40.706Z,102444.44
2023-03-03T22:37:42.209Z,102432.22
2023-03-03T22:39:43.699Z,102440.06
2023-03-03T22:41:45.184Z,102433.06
2023-03-03T22:43:47.922Z,102444.44
2023-03-03T22:45:50.528Z,102443.56
2023-03-03T22:47:52.119Z,102446.19
2023-03-03T22:49:53.806Z,102437.47
2023-03-03T22:51:58.666Z,102440.13
2023-03-03T22:54:00.189Z,102440.09
2023-03-03T22:56:01.763Z,102436.59
2023-03-03T22:58:09.345Z,102430.47
2023-03-03T23:00:11.874Z,102422.63
2023-03-03T23:02:13.374Z,102430.44
2023-03-03T23:04:14.912Z,102433.06
2023-03-03T23:06:16.497Z,102423.50
2023-03-03T23:08:19.289Z,102429.63
2023-03-03T23:10:20.843Z,102432.25
2023-03-03T23:12:23.443Z,102426.16
2023-03-03T23:14:25.520Z,102422.66
2023-03-03T23:16:27.135Z,102427.91
2023-03-03T23:18:29.515Z,102423.56
2023-03-03T23:20:31.680Z,102431.41
2023-03-03T23:22:33.173Z,102423.56
2023-03-03T23:24:34.680Z,102430.53
2023-03-03T23:26:36.144Z,102424.44
2023-03-03T23:28:37.637Z,102431.41
2023-03-03T23:30:39.083Z,102429.69
2023-03-03T23:32:41.287Z,102426.22
2023-03-03T23:34:42.754Z,102418.38
2023-03-03T23:36:44.210Z,102426.25
2023-03-03T23:38:45.742Z,102418.38
2023-03-03T23:40:47.197Z,102421.84
2023-03-03T23:42:48.656Z,102421.81
2023-03-03T23:44:50.556Z,102417.50
2023-03-03T23:46:52.153Z,102408.78
2023-03-03T23:48:53.698Z,102411.41
2023-03-03T23:50:55.140Z,102415.78
2023-03-03T23:52:56.676Z,102409.66
2023-03-03T23:54:58.140Z,102406.19
2023-03-03T23:56:59.735Z,102407.09
2023-03-03T23:59:01.302Z,102400.09
